createdAt,value
2018-06-09T00:00:33.618Z,13.60
2018-06-09T00:03:02.381Z,14.77
2018-06-09T00:05:31.265Z,13.80
2018-06-09T00:07:59.993Z,14.50
2018-06-09T00:10:28.697Z,13.97
2018-06-09T00:12:57.506Z,13.43
2018-06-09T00:15:31.921Z,14.40
2018-06-09T00:18:00.697Z,14.40
2018-06-09T00:20:29.558Z,14.30
2018-06-09T00:22:58.434Z,14.00
2018-06-09T00:25:27.155Z,16.33
2018-06-09T00:27:55.869Z,16.67
2018-06-09T00:30:24.620Z,14.47
2018-06-09T00:32:53.337Z,15.20
2018-06-09T00:35:23.253Z,15.83
2018-06-09T00:37:51.974Z,14.77
2018-06-09T00:40:20.694Z,14.37
2018-06-09T00:42:49.413Z,15.83
2018-06-09T00:45:18.158Z,15.23
2018-06-09T00:47:46.869Z,14.83
2018-06-09T00:50:15.602Z,15.50
2018-06-09T00:52:44.321Z,13.93
2018-06-09T00:55:13.041Z,12.57
2018-06-09T00:57:41.787Z,12.77
2018-06-09T01:00:10.505Z,14.10
2018-06-09T01:02:39.273Z,13.70
2018-06-09T01:05:08.001Z,15.23
2018-06-09T01:07:36.805Z,15.10
2018-06-09T01:10:05.305Z,14.13
2018-06-09T01:12:33.958Z,14.13
2018-06-09T01:15:02.703Z,13.17
2018-06-09T01:17:31.409Z,14.40
2018-06-09T01:20:00.945Z,15.23
2018-06-09T01:22:29.791Z,14.27
2018-06-09T01:24:58.517Z,13.33
2018-06-09T01:27:27.294Z,14.43
2018-06-09T01:29:56.002Z,11.93
2018-06-09T01:32:24.734Z,14.13
2018-06-09T01:34:53.534Z,11.63
2018-06-09T01:37:22.245Z,11.83
2018-06-09T01:39:50.957Z,13.27
2018-06-09T01:42:19.696Z,12.60
2018-06-09T01:44:48.414Z,13.03
2018-06-09T01:47:17.329Z,14.03
2018-06-09T01:49:46.065Z,14.20
2018-06-09T01:52:14.789Z,13.23
2018-06-09T01:54:44.582Z,13.60
2018-06-09T01:57:13.294Z,13.43
2018-06-09T01:59:42.037Z,13.80
2018-06-09T02:02:10.745Z,11.87
2018-06-09T02:04:39.461Z,13.13
2018-06-09T02:07:13.916Z,12.17
2018-06-09T02:09:42.643Z,13.07
2018-06-09T02:12:11.345Z,12.90
2018-06-09T02:14:40.066Z,13.27
2018-06-09T02:17:12.797Z,13.70
2018-06-09T02:19:41.497Z,14.17
2018-06-09T02:22:10.279Z,15.43
2018-06-09T02:24:39.033Z,15.80
2018-06-09T02:27:07.814Z,16.10
2018-06-09T02:29:36.557Z,16.57
2018-06-09T02:32:05.283Z,15.93
2018-06-09T02:34:40.825Z,15.07
2018-06-09T02:37:09.328Z,12.73
2018-06-09T02:39:38.045Z,12.50
2018-06-09T02:42:06.765Z,13.17
2018-06-09T02:44:35.482Z,12.23
2018-06-09T02:47:04.744Z,12.17
2018-06-09T02:49:33.489Z,12.73
2018-06-09T02:52:02.238Z,11.37
2018-06-09T02:54:30.824Z,13.30
2018-06-09T02:56:59.465Z,12.57
2018-06-09T02:59:28.183Z,13.17
2018-06-09T03:01:56.894Z,12.87
2018-06-09T03:04:26.849Z,13.50
2018-06-09T03:06:55.779Z,13.47
2018-06-09T03:09:24.469Z,14.63
2018-06-09T03:11:53.198Z,14.10
2018-06-09T03:14:21.917Z,13.17
2018-06-09T03:16:55.812Z,12.70
2018-06-09T03:19:24.583Z,13.33
2018-06-09T03:21:53.329Z,13.03
2018-06-09T03:24:22.090Z,13.20
2018-06-09T03:26:50.798Z,13.87
2018-06-09T03:29:19.549Z,13.67
2018-06-09T03:31:48.297Z,13.33
2018-06-09T03:34:17.021Z,13.50
2018-06-09T03:36:45.738Z,14.33
2018-06-09T03:39:14.446Z,15.63
2018-06-09T03:44:43.049Z,15.37
2018-06-09T03:47:11.824Z,15.80
2018-06-09T03:49:40.577Z,14.53
2018-06-09T03:52:09.336Z,14.67
2018-06-09T03:54:38.093Z,14.13
2018-06-09T03:57:06.843Z,12.77
2018-06-09T03:59:35.639Z,13.80
2018-06-09T04:02:04.761Z,12.93
2018-06-09T04:04:34.673Z,11.97
2018-06-09T04:07:03.385Z,12.17
2018-06-09T04:09:32.119Z,13.37
2018-06-09T04:12:00.861Z,12.37
2018-06-09T04:14:29.590Z,13.03
2018-06-09T04:16:58.297Z,14.57
2018-06-09T04:19:39.470Z,13.40
2018-06-09T04:22:08.196Z,13.17
2018-06-09T04:24:36.945Z,14.17
2018-06-09T04:27:05.649Z,13.93
2018-06-09T04:29:34.360Z,16.13
2018-06-09T04:32:03.222Z,16.10
2018-06-09T04:34:31.929Z,15.27
2018-06-09T04:37:00.666Z,12.67
2018-06-09T04:39:29.437Z,12.07
2018-06-09T04:41:58.158Z,10.83
2018-06-09T04:44:26.881Z,11.20
2018-06-09T04:46:55.618Z,12.13
2018-06-09T04:49:24.354Z,13.27
2018-06-09T04:51:53.073Z,12.93
2018-06-09T04:54:21.840Z,12.20
2018-06-09T04:56:50.706Z,11.23
2018-06-09T04:59:19.520Z,11.77
2018-06-09T05:01:48.169Z,11.70
2018-06-09T05:04:16.921Z,11.27
2018-06-09T05:06:45.673Z,12.07
2018-06-09T05:09:14.390Z,12.17
2018-06-09T05:11:43.125Z,13.47
2018-06-09T05:14:11.837Z,14.10
2018-06-09T05:16:40.610Z,12.73
2018-06-09T05:19:10.715Z,14.03
2018-06-09T05:21:39.452Z,14.00
2018-06-09T05:24:08.134Z,14.77
2018-06-09T05:26:37.025Z,15.07
2018-06-09T05:29:05.774Z,14.80
2018-06-09T05:31:34.509Z,14.17
2018-06-09T05:34:03.229Z,11.23
2018-06-09T05:36:31.945Z,14.17
2018-06-09T05:39:00.651Z,15.67
2018-06-09T05:41:29.394Z,14.20
2018-06-09T05:43:58.112Z,14.93
2018-06-09T05:46:26.829Z,14.23
2018-06-09T05:48:55.570Z,15.90
2018-06-09T05:51:24.308Z,15.50
2018-06-09T05:53:53.027Z,15.63
2018-06-09T05:56:21.758Z,14.60
2018-06-09T05:58:50.481Z,15.00
2018-06-09T06:01:19.203Z,17.50
2018-06-09T06:03:47.909Z,15.13
2018-06-09T06:06:16.652Z,15.83
2018-06-09T06:08:45.425Z,15.43
2018-06-09T06:11:14.137Z,15.60
2018-06-09T06:13:44.202Z,15.60
2018-06-09T06:16:12.934Z,16.03
2018-06-09T06:18:41.480Z,16.10
2018-06-09T06:21:10.257Z,16.97
2018-06-09T06:23:39.034Z,13.80
2018-06-09T06:26:07.721Z,14.87
2018-06-09T06:28:36.437Z,15.53
2018-06-09T06:31:05.153Z,16.30
2018-06-09T06:33:33.899Z,14.73
2018-06-09T06:36:02.701Z,14.23
2018-06-09T06:38:31.462Z,14.20
2018-06-09T06:41:00.177Z,17.67
2018-06-09T06:43:28.933Z,15.87
2018-06-09T06:45:57.661Z,16.30
2018-06-09T06:48:26.393Z,16.83
2018-06-09T06:50:55.154Z,18.53
2018-06-09T06:53:23.854Z,23.30
2018-06-09T06:55:52.567Z,21.80
2018-06-09T06:58:21.290Z,25.20
2018-06-09T07:00:50.053Z,18.87
2018-06-09T07:03:18.941Z,18.27
2018-06-09T07:05:47.705Z,17.30
2018-06-09T07:08:16.532Z,22.73
2018-06-09T07:10:45.413Z,24.77
2018-06-09T07:13:14.181Z,19.60
2018-06-09T07:15:48.857Z,17.73
2018-06-09T07:18:17.617Z,15.87
2018-06-09T07:20:46.350Z,17.40
2018-06-09T07:23:15.214Z,15.37
2018-06-09T07:25:43.925Z,15.73
2018-06-09T07:28:12.653Z,16.17
2018-06-09T07:30:41.437Z,16.07
2018-06-09T07:33:10.157Z,12.83
2018-06-09T07:35:56.552Z,20.70
2018-06-09T07:38:25.313Z,14.93
2018-06-09T07:40:58.933Z,15.87
2018-06-09T07:43:27.660Z,16.90
2018-06-09T07:46:02.478Z,17.53
2018-06-09T07:48:31.182Z,14.30
2018-06-09T07:50:59.964Z,15.43
2018-06-09T07:53:28.669Z,15.03
2018-06-09T07:55:57.385Z,14.70
2018-06-09T07:58:26.115Z,15.50
2018-06-09T08:01:08.511Z,20.03
2018-06-09T08:03:37.245Z,13.03
2018-06-09T08:06:05.997Z,15.30
2018-06-09T08:08:34.773Z,14.60
2018-06-09T08:11:03.505Z,14.80
2018-06-09T08:13:32.242Z,14.73
2018-06-09T08:16:00.975Z,14.73
2018-06-09T08:18:29.699Z,22.63
2018-06-09T08:20:58.531Z,20.47
2018-06-09T08:23:27.429Z,15.27
2018-06-09T08:25:56.129Z,17.47
2018-06-09T08:28:24.910Z,14.50
2018-06-09T08:30:53.621Z,14.30
2018-06-09T08:33:22.334Z,13.43
2018-06-09T08:35:51.048Z,11.57
2018-06-09T08:38:19.793Z,12.53
2018-06-09T08:40:48.666Z,12.13
2018-06-09T08:43:17.371Z,16.73
2018-06-09T08:45:46.120Z,13.50
2018-06-09T08:48:14.866Z,13.27
2018-06-09T08:50:43.602Z,12.97
2018-06-09T08:53:19.237Z,13.57
2018-06-09T08:55:48.161Z,11.87
2018-06-09T08:58:16.905Z,11.87
2018-06-09T09:00:45.609Z,11.70
2018-06-09T09:03:25.641Z,11.40
2018-06-09T09:05:54.353Z,12.43
2018-06-09T09:08:23.089Z,11.10
2018-06-09T09:10:51.929Z,10.60
2018-06-09T09:13:20.701Z,11.57
2018-06-09T09:15:49.433Z,10.67
2018-06-09T09:18:18.141Z,10.20
2018-06-09T09:20:46.853Z,11.23
2018-06-09T09:23:18.017Z,10.93
2018-06-09T09:25:46.785Z,10.70
2018-06-09T09:28:15.581Z,9.73
2018-06-09T09:30:44.306Z,10.37
2018-06-09T09:33:13.021Z,10.27
2018-06-09T09:35:41.747Z,11.50
2018-06-09T09:38:11.765Z,10.80
2018-06-09T09:40:40.546Z,11.53
2018-06-09T09:43:09.265Z,10.50
2018-06-09T09:45:37.999Z,11.03
2018-06-09T09:48:06.713Z,10.47
2018-06-09T09:50:35.709Z,10.03
2018-06-09T09:53:04.487Z,9.73
2018-06-09T09:55:33.221Z,8.70
2018-06-09T09:58:02.717Z,9.20
2018-06-09T10:00:37.837Z,8.73
2018-06-09T10:03:06.747Z,9.67
2018-06-09T10:05:35.462Z,9.40
2018-06-09T10:08:03.928Z,8.87
2018-06-09T10:10:33.131Z,9.63
2018-06-09T10:13:01.827Z,8.57
2018-06-09T10:15:30.605Z,9.60
2018-06-09T10:17:59.489Z,9.77
2018-06-09T10:20:28.185Z,8.53
2018-06-09T10:22:56.966Z,9.90
2018-06-09T10:25:25.708Z,11.07
2018-06-09T10:27:54.488Z,10.03
2018-06-09T10:30:23.254Z,9.97
2018-06-09T10:32:52.021Z,10.00
2018-06-09T10:35:20.674Z,10.57
2018-06-09T10:37:49.425Z,9.27
2018-06-09T10:40:18.173Z,9.80
2018-06-09T10:42:46.890Z,10.60
2018-06-09T10:45:15.608Z,9.27
2018-06-09T10:47:44.358Z,9.43
2018-06-09T10:50:13.073Z,9.13
2018-06-09T10:52:41.805Z,8.10
2018-06-09T10:55:10.560Z,8.77
2018-06-09T10:57:39.317Z,8.93
2018-06-09T11:00:08.071Z,9.73
2018-06-09T11:02:36.761Z,8.47
2018-06-09T11:05:05.501Z,9.10
2018-06-09T11:07:34.192Z,8.90
2018-06-09T11:10:02.974Z,9.00
2018-06-09T11:12:31.733Z,8.27
2018-06-09T11:15:00.461Z,9.20
2018-06-09T11:17:29.225Z,8.90
2018-06-09T11:19:58.021Z,9.20
2018-06-09T11:22:26.737Z,8.37
2018-06-09T11:24:55.489Z,8.87
2018-06-09T11:27:24.217Z,7.80
2018-06-09T11:29:52.909Z,7.93
2018-06-09T11:32:21.613Z,8.63
2018-06-09T11:34:50.478Z,8.53
2018-06-09T11:37:19.182Z,8.93
2018-06-09T11:39:47.886Z,9.17
2018-06-09T11:42:16.644Z,9.00
2018-06-09T11:44:45.349Z,9.17
2018-06-09T11:47:14.142Z,9.43
2018-06-09T11:49:42.781Z,8.83
2018-06-09T11:52:11.566Z,8.73
2018-06-09T11:54:40.325Z,8.70
2018-06-09T11:57:09.157Z,8.80
2018-06-09T11:59:38.014Z,8.53
2018-06-09T12:02:06.788Z,8.80
2018-06-09T12:04:35.510Z,8.63
2018-06-09T12:07:04.265Z,8.03
2018-06-09T12:09:33.045Z,9.00
2018-06-09T12:12:01.753Z,8.87
2018-06-09T12:14:30.445Z,8.47
2018-06-09T12:16:59.313Z,7.97
2018-06-09T12:19:28.209Z,8.33
2018-06-09T12:21:57.161Z,8.93
2018-06-09T12:24:25.851Z,8.30
2018-06-09T12:26:54.678Z,8.67
2018-06-09T12:29:23.434Z,10.10
2018-06-09T12:31:52.141Z,9.33
2018-06-09T12:34:20.854Z,8.67
2018-06-09T12:36:56.025Z,9.40
2018-06-09T12:39:24.826Z,9.00
2018-06-09T12:41:53.544Z,8.83
2018-06-09T12:44:22.249Z,8.77
2018-06-09T12:46:50.941Z,8.80
2018-06-09T12:49:19.721Z,8.33
2018-06-09T12:51:48.428Z,8.07
2018-06-09T12:54:17.337Z,8.67
2018-06-09T12:56:46.051Z,8.97
2018-06-09T12:59:14.759Z,8.77
2018-06-09T13:01:43.464Z,8.50
2018-06-09T13:04:12.178Z,8.53
2018-06-09T13:06:40.701Z,9.27
2018-06-09T13:09:09.334Z,8.83
2018-06-09T13:11:38.185Z,8.37
2018-06-09T13:14:06.938Z,8.13
2018-06-09T13:16:35.577Z,7.80
2018-06-09T13:19:04.444Z,7.67
2018-06-09T13:21:33.185Z,7.77
2018-06-09T13:24:01.918Z,8.43
2018-06-09T13:26:30.621Z,7.77
2018-06-09T13:28:59.349Z,7.27
2018-06-09T13:31:28.062Z,7.57
2018-06-09T13:33:56.778Z,7.63
2018-06-09T13:36:25.474Z,7.83
2018-06-09T13:38:54.381Z,7.33
2018-06-09T13:41:23.080Z,6.60
2018-06-09T13:43:51.816Z,6.97
2018-06-09T13:46:20.550Z,7.13
2018-06-09T13:48:49.245Z,6.43
2018-06-09T13:51:17.985Z,6.97
2018-06-09T13:53:46.705Z,7.10
2018-06-09T13:56:15.421Z,7.13
2018-06-09T13:58:44.113Z,7.27
2018-06-09T14:01:12.862Z,6.83
2018-06-09T14:03:41.595Z,6.70
2018-06-09T14:06:10.444Z,7.57
2018-06-09T14:08:40.157Z,6.83
2018-06-09T14:11:08.881Z,6.70
2018-06-09T14:13:37.624Z,6.50
2018-06-09T14:16:06.357Z,6.80
2018-06-09T14:18:35.074Z,5.80
2018-06-09T14:21:03.806Z,6.30
2018-06-09T14:23:32.526Z,8.03
2018-06-09T14:26:01.250Z,6.97
2018-06-09T14:28:30.005Z,6.57
2018-06-09T14:30:58.722Z,6.47
2018-06-09T14:33:27.425Z,6.03
2018-06-09T14:35:56.129Z,6.70
2018-06-09T14:38:24.858Z,7.00
2018-06-09T14:40:53.569Z,7.03
2018-06-09T14:43:22.349Z,7.17
2018-06-09T14:45:51.101Z,7.00
2018-06-09T14:48:19.814Z,7.07
2018-06-09T14:50:48.698Z,7.30
2018-06-09T14:53:17.401Z,6.50
2018-06-09T14:55:46.110Z,6.90
2018-06-09T14:58:14.858Z,6.57
2018-06-09T15:00:43.577Z,6.83
2018-06-09T15:03:12.352Z,7.20
2018-06-09T15:05:41.111Z,6.90
2018-06-09T15:08:09.828Z,6.50
2018-06-09T15:10:38.541Z,7.37
2018-06-09T15:13:07.433Z,6.90
2018-06-09T15:15:36.141Z,6.17
2018-06-09T15:18:05.017Z,6.07
2018-06-09T15:20:35.729Z,6.40
2018-06-09T15:23:04.446Z,6.30
2018-06-09T15:25:33.302Z,6.77
2018-06-09T15:28:02.093Z,6.73
2018-06-09T15:30:30.799Z,6.77
2018-06-09T15:32:59.514Z,6.53
2018-06-09T15:35:28.281Z,6.60
2018-06-09T15:37:57.041Z,6.10
2018-06-09T15:40:25.751Z,6.43
2018-06-09T15:42:54.505Z,6.30
2018-06-09T15:45:23.269Z,5.27
2018-06-09T15:47:51.993Z,6.13
2018-06-09T15:50:20.853Z,6.07
2018-06-09T15:52:49.642Z,5.13
2018-06-09T15:55:18.198Z,11.43
2018-06-09T15:57:46.841Z,5.80
2018-06-09T16:00:15.562Z,5.33
2018-06-09T16:02:44.311Z,4.57
2018-06-09T16:05:13.025Z,6.10
2018-06-09T16:07:42.478Z,5.33
2018-06-09T16:10:11.204Z,6.50
2018-06-09T16:12:39.951Z,7.77
2018-06-09T16:15:08.825Z,7.73
2018-06-09T16:17:37.553Z,8.23
2018-06-09T16:20:06.315Z,8.33
2018-06-09T16:22:35.049Z,7.63
2018-06-09T16:25:03.765Z,7.57
2018-06-09T16:27:32.466Z,7.67
2018-06-09T16:30:01.232Z,7.10
2018-06-09T16:32:29.943Z,7.07
2018-06-09T16:34:58.715Z,6.90
2018-06-09T16:37:27.389Z,7.37
2018-06-09T16:39:56.086Z,7.50
2018-06-09T16:42:24.809Z,7.90
2018-06-09T16:44:53.562Z,8.40
2018-06-09T16:47:22.266Z,7.30
2018-06-09T16:49:50.980Z,7.87
2018-06-09T16:52:19.698Z,8.60
2018-06-09T16:54:48.488Z,8.20
2018-06-09T16:57:17.229Z,8.57
2018-06-09T16:59:45.992Z,8.57
2018-06-09T17:02:14.690Z,7.33
2018-06-09T17:04:44.519Z,7.60
2018-06-09T17:07:13.205Z,7.33
2018-06-09T17:09:41.954Z,7.33
2018-06-09T17:12:10.657Z,8.30
2018-06-09T17:14:39.402Z,7.53
2018-06-09T17:17:08.117Z,8.37
2018-06-09T17:19:36.839Z,7.13
2018-06-09T17:22:05.753Z,8.27
2018-06-09T17:24:34.461Z,7.37
2018-06-09T17:27:03.177Z,6.57
2018-06-09T17:29:31.906Z,6.60
2018-06-09T17:32:00.635Z,7.07
2018-06-09T17:34:29.369Z,6.30
2018-06-09T17:36:58.106Z,6.27
2018-06-09T17:39:30.791Z,5.83
2018-06-09T17:41:59.507Z,5.87
2018-06-09T17:44:28.249Z,6.30
2018-06-09T17:46:56.961Z,5.40
2018-06-09T17:49:25.656Z,6.17
2018-06-09T17:51:54.360Z,5.80
2018-06-09T17:54:23.103Z,5.80
2018-06-09T17:56:51.804Z,5.93
2018-06-09T17:59:20.502Z,5.60
2018-06-09T18:01:49.255Z,5.30
2018-06-09T18:04:17.980Z,5.27
2018-06-09T18:06:46.707Z,4.50
2018-06-09T18:09:15.417Z,4.57
2018-06-09T18:11:44.149Z,3.90
2018-06-09T18:14:12.873Z,3.53
2018-06-09T18:16:41.609Z,2.77
2018-06-09T18:19:10.313Z,3.60
2018-06-09T18:21:39.017Z,3.43
2018-06-09T18:24:07.737Z,2.90
2018-06-09T18:26:36.662Z,2.43
2018-06-09T18:29:05.442Z,2.77
2018-06-09T18:31:34.145Z,2.83
2018-06-09T18:34:02.932Z,3.00
2018-06-09T18:36:31.589Z,3.43
2018-06-09T18:39:00.294Z,3.07
2018-06-09T18:41:29.001Z,3.20
2018-06-09T18:44:02.781Z,3.20
2018-06-09T18:46:31.521Z,2.73
2018-06-09T18:49:01.007Z,3.30
2018-06-09T18:51:40.562Z,3.20
2018-06-09T18:54:09.310Z,3.10
2018-06-09T18:56:38.043Z,2.90
2018-06-09T18:59:06.905Z,3.37
2018-06-09T19:01:35.626Z,3.07
2018-06-09T19:04:04.388Z,3.30
2018-06-09T19:06:32.905Z,3.40
2018-06-09T19:09:01.550Z,3.43
2018-06-09T19:11:30.254Z,3.57
2018-06-09T19:13:59.381Z,3.40
2018-06-09T19:16:28.148Z,3.63
2018-06-09T19:18:56.891Z,3.47
2018-06-09T19:21:25.937Z,3.30
2018-06-09T19:23:54.606Z,3.63
2018-06-09T19:26:23.521Z,3.10
2018-06-09T19:28:52.293Z,2.90
2018-06-09T19:31:25.058Z,3.13
2018-06-09T19:33:53.805Z,3.83
2018-06-09T19:36:23.394Z,4.83
2018-06-09T19:38:52.125Z,3.33
2018-06-09T19:41:20.850Z,3.90
2018-06-09T19:43:49.658Z,3.40
2018-06-09T19:46:18.417Z,3.57
2018-06-09T19:48:48.305Z,4.40
2018-06-09T19:51:17.157Z,4.60
2018-06-09T19:53:45.901Z,4.30
2018-06-09T19:56:14.654Z,5.73
2018-06-09T19:58:43.397Z,5.30
2018-06-09T20:01:12.137Z,5.27
2018-06-09T20:03:40.622Z,4.37
2018-06-09T20:06:09.413Z,5.03
2018-06-09T20:08:38.170Z,4.93
2018-06-09T20:11:06.818Z,4.97
2018-06-09T20:13:35.529Z,4.47
2018-06-09T20:16:04.284Z,4.57
2018-06-09T20:18:32.984Z,4.90
2018-06-09T20:21:01.685Z,5.03
2018-06-09T20:23:32.713Z,4.60
2018-06-09T20:26:04.745Z,4.67
2018-06-09T20:28:33.671Z,4.77
2018-06-09T20:31:02.454Z,5.40
2018-06-09T20:33:31.174Z,4.93
2018-06-09T20:35:59.913Z,5.67
2018-06-09T20:38:28.640Z,4.80
2018-06-09T20:41:15.219Z,4.67
2018-06-09T20:43:43.906Z,5.50
2018-06-09T20:46:12.640Z,5.37
2018-06-09T20:48:41.454Z,4.80
2018-06-09T20:51:10.949Z,4.93
2018-06-09T20:53:39.681Z,4.80
2018-06-09T20:56:08.553Z,4.97
2018-06-09T20:58:39.816Z,4.90
2018-06-09T21:01:08.610Z,5.30
2018-06-09T21:03:37.360Z,4.57
2018-06-09T21:06:06.050Z,4.53
2018-06-09T21:08:34.761Z,5.27
2018-06-09T21:11:03.609Z,5.43
2018-06-09T21:13:32.334Z,4.70
2018-06-09T21:16:01.037Z,4.67
2018-06-09T21:18:29.897Z,4.80
2018-06-09T21:20:58.589Z,4.97
2018-06-09T21:23:27.313Z,5.00
2018-06-09T21:25:56.026Z,4.57
2018-06-09T21:28:24.737Z,4.37
2018-06-09T21:30:58.884Z,5.00
2018-06-09T21:33:44.497Z,4.23
2018-06-09T21:36:20.746Z,4.63
2018-06-09T21:38:54.752Z,3.60
2018-06-09T21:41:27.693Z,4.43
2018-06-09T21:44:00.828Z,3.90
2018-06-09T21:46:34.941Z,3.70
2018-06-09T21:49:03.714Z,4.83
2018-06-09T21:51:32.465Z,4.50
2018-06-09T21:54:01.197Z,4.07
2018-06-09T21:56:29.906Z,4.67
2018-06-09T21:58:58.638Z,4.30
2018-06-09T22:01:27.517Z,3.70
2018-06-09T22:04:01.842Z,4.23
2018-06-09T22:06:30.569Z,4.00
2018-06-09T22:08:59.302Z,4.70
2018-06-09T22:11:28.045Z,4.60
2018-06-09T22:13:56.770Z,4.43
2018-06-09T22:16:26.173Z,4.43
2018-06-09T22:18:54.887Z,4.03
2018-06-09T22:21:23.633Z,4.50
2018-06-09T22:23:58.434Z,4.53
2018-06-09T22:26:27.133Z,5.10
2018-06-09T22:28:55.895Z,4.90
2018-06-09T22:31:24.641Z,5.03
2018-06-09T22:33:53.373Z,4.60
2018-06-09T22:36:22.123Z,4.47
2018-06-09T22:38:50.836Z,4.10
2018-06-09T22:41:19.564Z,3.47
2018-06-09T22:43:48.421Z,3.70
2018-06-09T22:46:17.158Z,4.30
2018-06-09T22:48:45.893Z,5.30
2018-06-09T22:51:14.641Z,4.17
2018-06-09T22:53:43.383Z,4.53
2018-06-09T22:56:12.094Z,3.87
2018-06-09T22:58:40.789Z,4.63
2018-06-09T23:01:09.546Z,4.47
2018-06-09T23:03:38.266Z,4.27
2018-06-09T23:06:07.074Z,4.40
2018-06-09T23:08:35.817Z,4.60
2018-06-09T23:11:04.545Z,4.00
2018-06-09T23:13:33.241Z,4.67
2018-06-09T23:16:01.984Z,4.40
2018-06-09T23:18:30.861Z,4.47
2018-06-09T23:20:59.573Z,4.83
2018-06-09T23:23:28.277Z,4.27
2018-06-09T23:25:56.998Z,4.40
2018-06-09T23:28:25.877Z,4.50
2018-06-09T23:30:54.349Z,4.73
2018-06-09T23:33:22.844Z,4.33
2018-06-09T23:35:51.489Z,4.47
2018-06-09T23:38:20.193Z,5.10
2018-06-09T23:40:49.069Z,4.53
2018-06-09T23:43:17.771Z,4.50
2018-06-09T23:45:46.470Z,4.67
2018-06-09T23:48:15.409Z,4.80
2018-06-09T23:50:44.148Z,4.77
2018-06-09T23:53:12.887Z,4.50
2018-06-09T23:55:41.590Z,4.60
2018-06-09T23:58:10.305Z,4.50
